createdAt,value
2022-11-11T00:00:48.079Z,5.54
2022-11-11T00:03:34.577Z,5.57
2022-11-11T00:06:20.863Z,5.55
2022-11-11T00:09:07.018Z,5.56
2022-11-11T00:11:53.154Z,5.54
2022-11-11T00:14:40.792Z,5.55
2022-11-11T00:17:44.979Z,5.48
2022-11-11T00:20:49.385Z,5.47
2022-11-11T00:23:53.643Z,5.41
2022-11-11T00:26:43.377Z,5.39
2022-11-11T00:29:29.911Z,5.37
2022-11-11T00:32:28.888Z,5.33
2022-11-11T00:35:34.186Z,5.27
2022-11-11T00:38:39.612Z,5.24
2022-11-11T00:41:27.201Z,5.24
2022-11-11T00:44:13.766Z,5.22
2022-11-11T00:47:17.357Z,5.23
2022-11-11T00:50:24.382Z,5.22
2022-11-11T00:53:13.176Z,5.22
2022-11-11T00:56:00.095Z,5.16
2022-11-11T00:58:46.678Z,5.14
2022-11-11T01:01:33.112Z,5.10
2022-11-11T01:04:19.792Z,5.13
2022-11-11T01:07:07.297Z,5.11
2022-11-11T01:09:54.047Z,5.10
2022-11-11T01:12:40.655Z,5.07
2022-11-11T01:15:26.705Z,5.07
2022-11-11T01:18:15.017Z,5.08
2022-11-11T01:21:03.832Z,5.06
2022-11-11T01:23:52.941Z,5.05
2022-11-11T01:26:39.387Z,4.99
2022-11-11T01:29:25.786Z,4.91
2022-11-11T01:32:11.901Z,4.86
2022-11-11T01:34:58.171Z,4.84
2022-11-11T01:37:44.567Z,4.81
2022-11-11T01:40:32.259Z,4.78
2022-11-11T01:43:23.588Z,4.74
2022-11-11T01:46:26.957Z,4.75
2022-11-11T01:49:26.574Z,4.72
2022-11-11T01:52:15.750Z,4.71
2022-11-11T01:55:06.982Z,4.72
2022-11-11T01:57:58.486Z,4.71
2022-11-11T02:00:44.608Z,4.66
2022-11-11T02:03:34.482Z,4.66
2022-11-11T02:06:20.425Z,4.68
2022-11-11T02:09:08.610Z,4.70
2022-11-11T02:12:15.518Z,4.71
2022-11-11T02:15:04.121Z,4.66
2022-11-11T02:17:50.996Z,4.66
2022-11-11T02:20:40.220Z,4.64
2022-11-11T02:23:31.548Z,4.61
2022-11-11T02:26:19.903Z,4.59
2022-11-11T02:29:12.028Z,4.59
2022-11-11T02:31:58.523Z,4.58
2022-11-11T02:34:45.184Z,4.53
2022-11-11T02:37:31.273Z,4.49
2022-11-11T02:40:21.304Z,4.50
2022-11-11T02:43:09.060Z,4.49
2022-11-11T02:45:55.749Z,4.47
2022-11-11T02:48:41.864Z,4.44
2022-11-11T02:51:28.028Z,4.38
2022-11-11T02:54:14.936Z,4.34
2022-11-11T02:57:10.122Z,4.33
2022-11-11T02:59:59.775Z,4.31
2022-11-11T03:02:46.268Z,4.31
2022-11-11T03:05:33.380Z,4.29
2022-11-11T03:08:19.748Z,4.32
2022-11-11T03:11:06.461Z,4.29
2022-11-11T03:13:53.155Z,4.29
2022-11-11T03:16:58.294Z,4.28
2022-11-11T03:19:45.052Z,4.25
2022-11-11T03:25:40.160Z,4.31
2022-11-11T03:28:26.643Z,4.31
2022-11-11T03:31:13.075Z,4.32
2022-11-11T03:34:18.308Z,4.36
2022-11-11T03:37:23.371Z,4.37
2022-11-11T03:40:10.696Z,4.40
2022-11-11T03:43:02.969Z,4.48
2022-11-11T03:45:52.145Z,4.48
2022-11-11T03:48:38.339Z,4.48
2022-11-11T03:51:25.731Z,4.50
2022-11-11T03:54:12.213Z,4.48
2022-11-11T03:57:20.896Z,4.45
2022-11-11T04:00:14.224Z,4.40
2022-11-11T04:03:25.289Z,4.37
2022-11-11T04:06:29.509Z,4.31
2022-11-11T04:09:35.026Z,4.26
2022-11-11T04:12:21.905Z,4.28
2022-11-11T04:15:26.561Z,4.23
2022-11-11T04:18:12.972Z,4.21
2022-11-11T04:21:16.472Z,4.21
2022-11-11T04:24:02.975Z,4.17
2022-11-11T04:26:49.431Z,4.17
2022-11-11T04:29:35.901Z,4.14
2022-11-11T04:32:43.353Z,4.09
2022-11-11T04:35:29.411Z,4.06
2022-11-11T04:38:33.063Z,4.10
2022-11-11T04:41:19.383Z,4.10
2022-11-11T04:44:24.759Z,4.08
2022-11-11T04:47:11.065Z,4.06
2022-11-11T04:49:57.281Z,4.09
2022-11-11T04:52:44.020Z,4.12
2022-11-11T04:55:48.064Z,4.13
2022-11-11T04:58:35.118Z,4.15
2022-11-11T05:01:36.823Z,4.17
2022-11-11T05:04:23.102Z,4.21
2022-11-11T05:07:26.941Z,4.23
2022-11-11T05:10:13.198Z,4.25
2022-11-11T05:13:13.651Z,4.32
2022-11-11T05:16:17.490Z,4.36
2022-11-11T05:19:22.478Z,4.38
2022-11-11T05:22:14.056Z,4.37
2022-11-11T05:25:17.692Z,4.40
2022-11-11T05:28:04.121Z,4.45
2022-11-11T05:30:50.217Z,4.52
2022-11-11T05:33:36.466Z,4.60
2022-11-11T05:36:24.262Z,4.65
2022-11-11T05:39:10.611Z,4.71
2022-11-11T05:41:56.859Z,4.77
2022-11-11T05:44:42.991Z,4.82
2022-11-11T05:47:29.137Z,4.85
2022-11-11T05:50:16.025Z,4.89
2022-11-11T05:53:03.337Z,4.92
2022-11-11T05:55:51.192Z,4.94
2022-11-11T05:58:37.315Z,4.97
2022-11-11T06:01:23.894Z,5.04
2022-11-11T06:04:16.699Z,5.07
2022-11-11T06:07:04.604Z,5.09
2022-11-11T06:09:52.455Z,5.12
2022-11-11T06:13:02.046Z,5.13
2022-11-11T06:15:48.388Z,5.07
2022-11-11T06:18:34.581Z,4.97
2022-11-11T06:21:20.899Z,4.84
2022-11-11T06:24:07.496Z,4.82
2022-11-11T06:26:55.406Z,4.72
2022-11-11T06:29:42.289Z,4.66
2022-11-11T06:32:30.030Z,4.59
2022-11-11T06:35:16.350Z,4.61
2022-11-11T06:38:02.906Z,4.68
2022-11-11T06:40:49.293Z,4.68
2022-11-11T06:43:36.908Z,4.67
2022-11-11T06:46:24.885Z,4.64
2022-11-11T06:49:10.958Z,4.62
2022-11-11T06:51:57.159Z,4.57
2022-11-11T06:54:43.257Z,4.57
2022-11-11T06:57:29.469Z,4.56
2022-11-11T07:00:18.235Z,4.59
2022-11-11T07:03:05.040Z,4.58
2022-11-11T07:05:55.932Z,4.59
2022-11-11T07:08:44.868Z,4.61
2022-11-11T07:11:31.299Z,4.63
2022-11-11T07:14:17.458Z,4.63
2022-11-11T07:17:06.508Z,4.68
2022-11-11T07:19:53.225Z,4.78
2022-11-11T07:22:39.575Z,4.84
2022-11-11T07:25:25.936Z,4.89
2022-11-11T07:28:11.994Z,4.92
2022-11-11T07:30:58.121Z,4.97
2022-11-11T07:33:45.658Z,5.04
2022-11-11T07:36:31.908Z,5.11
2022-11-11T07:39:17.982Z,5.22
2022-11-11T07:42:04.299Z,5.29
2022-11-11T07:44:50.459Z,5.41
2022-11-11T07:47:37.059Z,5.45
2022-11-11T07:50:24.414Z,5.52
2022-11-11T07:53:10.535Z,5.57
2022-11-11T07:55:56.600Z,5.65
2022-11-11T07:58:42.663Z,5.81
2022-11-11T08:01:28.797Z,5.95
2022-11-11T08:04:14.928Z,6.08
2022-11-11T08:07:02.587Z,6.19
2022-11-11T08:09:48.727Z,6.17
2022-11-11T08:12:52.390Z,6.19
2022-11-11T08:15:38.692Z,6.17
2022-11-11T08:18:25.094Z,6.18
2022-11-11T08:21:11.365Z,6.20
2022-11-11T08:27:05.386Z,6.23
2022-11-11T08:29:51.627Z,6.32
2022-11-11T08:32:37.670Z,6.37
2022-11-11T08:35:23.875Z,6.44
2022-11-11T08:38:09.965Z,6.49
2022-11-11T08:41:00.991Z,6.60
2022-11-11T08:43:47.070Z,6.73
2022-11-11T08:46:33.322Z,6.83
2022-11-11T08:49:19.325Z,6.95
2022-11-11T08:52:05.669Z,7.06
2022-11-11T08:54:52.181Z,7.18
2022-11-11T08:57:39.545Z,7.25
2022-11-11T09:00:25.635Z,7.47
2022-11-11T09:03:13.053Z,7.69
2022-11-11T09:05:59.438Z,7.92
2022-11-11T09:08:45.901Z,8.24
2022-11-11T09:11:36.129Z,8.54
2022-11-11T09:14:24.030Z,8.70
2022-11-11T09:17:10.213Z,8.71
2022-11-11T09:19:56.368Z,9.04
2022-11-11T09:22:46.260Z,9.44
2022-11-11T09:25:32.324Z,9.41
2022-11-11T09:28:18.555Z,9.54
2022-11-11T09:31:37.460Z,9.80
2022-11-11T09:34:13.249Z,10.22
2022-11-11T09:36:59.564Z,10.69
2022-11-11T09:39:45.755Z,11.02
2022-11-11T09:42:38.693Z,11.28
2022-11-11T09:45:33.272Z,11.54
2022-11-11T09:48:38.602Z,11.61
2022-11-11T09:51:29.794Z,11.56
2022-11-11T09:54:23.033Z,11.65
2022-11-11T09:57:16.587Z,11.83
2022-11-11T10:00:07.296Z,12.01
2022-11-11T10:02:56.037Z,12.19
2022-11-11T10:05:49.418Z,12.64
2022-11-11T10:08:43.018Z,12.86
2022-11-11T10:11:52.233Z,13.07
2022-11-11T10:14:41.114Z,13.35
2022-11-11T10:17:35.818Z,13.67
2022-11-11T10:20:26.532Z,13.81
2022-11-11T10:23:17.148Z,13.89
2022-11-11T10:26:13.176Z,14.17
2022-11-11T10:29:01.633Z,14.01
2022-11-11T10:31:56.516Z,13.87
2022-11-11T10:34:42.965Z,13.88
2022-11-11T10:37:40.614Z,13.98
2022-11-11T10:40:35.574Z,13.96
2022-11-11T10:43:24.519Z,14.20
2022-11-11T10:46:17.266Z,14.12
2022-11-11T10:49:08.646Z,14.28
2022-11-11T10:52:04.066Z,14.69
2022-11-11T10:54:58.222Z,15.04
2022-11-11T10:57:52.825Z,15.51
2022-11-11T11:00:43.961Z,15.57
2022-11-11T11:03:35.393Z,15.30
2022-11-11T11:06:30.958Z,15.85
2022-11-11T11:09:22.342Z,16.13
2022-11-11T11:12:14.728Z,16.44
2022-11-11T11:15:09.517Z,16.74
2022-11-11T11:18:02.261Z,16.79
2022-11-11T11:20:59.011Z,16.68
2022-11-11T11:23:46.619Z,16.77
2022-11-11T11:26:44.911Z,16.60
2022-11-11T11:29:33.996Z,16.81
2022-11-11T11:32:23.762Z,16.74
2022-11-11T11:35:10.057Z,16.53
2022-11-11T11:37:56.095Z,16.35
2022-11-11T11:40:53.360Z,16.44
2022-11-11T11:43:42.654Z,16.38
2022-11-11T11:46:31.164Z,16.33
2022-11-11T11:49:33.181Z,16.58
2022-11-11T11:52:26.364Z,16.89
2022-11-11T11:55:17.762Z,16.75
2022-11-11T11:58:31.359Z,16.69
2022-11-11T12:01:23.261Z,16.98
2022-11-11T12:04:26.559Z,17.00
2022-11-11T12:07:21.597Z,17.16
2022-11-11T12:10:20.063Z,17.63
2022-11-11T12:13:15.911Z,17.95
2022-11-11T12:16:15.738Z,18.02
2022-11-11T12:19:17.317Z,17.96
2022-11-11T12:22:12.273Z,18.12
2022-11-11T12:25:08.504Z,18.29
2022-11-11T12:28:03.157Z,18.60
2022-11-11T12:30:52.819Z,18.86
2022-11-11T12:33:54.824Z,19.09
2022-11-11T12:36:49.252Z,19.66
2022-11-11T12:39:53.908Z,19.46
2022-11-11T12:42:52.963Z,19.67
2022-11-11T12:45:47.745Z,19.74
2022-11-11T12:48:47.344Z,19.41
2022-11-11T12:51:49.861Z,19.03
2022-11-11T12:54:46.304Z,19.54
2022-11-11T12:57:39.994Z,19.77
2022-11-11T13:00:27.272Z,19.59
2022-11-11T13:03:33.771Z,20.00
2022-11-11T13:06:40.844Z,19.92
2022-11-11T13:09:36.663Z,19.64
2022-11-11T13:12:29.503Z,19.44
2022-11-11T13:15:18.579Z,19.56
2022-11-11T13:18:13.567Z,19.19
2022-11-11T13:21:02.384Z,18.90
2022-11-11T13:23:48.516Z,18.86
2022-11-11T13:26:43.827Z,18.38
2022-11-11T13:29:55.275Z,18.26
2022-11-11T13:32:47.087Z,18.10
2022-11-11T13:35:37.355Z,17.88
2022-11-11T13:38:31.179Z,17.90
2022-11-11T13:41:25.205Z,17.74
2022-11-11T13:44:22.656Z,17.53
2022-11-11T13:47:17.912Z,17.06
2022-11-11T13:50:07.676Z,16.65
2022-11-11T13:52:58.915Z,16.17
2022-11-11T13:55:47.314Z,15.95
2022-11-11T13:58:36.658Z,15.81
2022-11-11T14:01:24.227Z,15.76
2022-11-11T14:04:12.567Z,15.96
2022-11-11T14:06:58.821Z,15.53
2022-11-11T14:10:00.324Z,15.85
2022-11-11T14:12:48.279Z,15.91
2022-11-11T14:15:40.970Z,15.75
2022-11-11T14:18:38.661Z,15.51
2022-11-11T14:21:50.524Z,15.38
2022-11-11T14:24:39.951Z,15.45
2022-11-11T14:27:30.414Z,15.19
2022-11-11T14:30:36.927Z,14.82
2022-11-11T14:33:39.466Z,14.75
2022-11-11T14:36:33.754Z,14.57
2022-11-11T14:39:33.685Z,14.38
2022-11-11T14:42:46.036Z,14.28
2022-11-11T14:46:02.499Z,13.91
2022-11-11T14:48:59.983Z,13.55
2022-11-11T14:51:52.101Z,13.47
2022-11-11T14:54:52.396Z,13.41
2022-11-11T14:57:40.828Z,13.17
2022-11-11T15:00:29.447Z,13.02
2022-11-11T15:03:22.194Z,12.63
2022-11-11T15:06:15.749Z,12.44
2022-11-11T15:09:14.059Z,12.25
2022-11-11T15:12:09.987Z,11.98
2022-11-11T15:15:04.431Z,11.67
2022-11-11T15:18:03.171Z,11.48
2022-11-11T15:21:07.634Z,11.26
2022-11-11T15:24:08.565Z,11.01
2022-11-11T15:27:02.029Z,10.85
2022-11-11T15:30:15.120Z,10.71
2022-11-11T15:33:10.589Z,10.50
2022-11-11T15:36:10.829Z,10.44
2022-11-11T15:39:00.161Z,10.44
2022-11-11T15:41:50.801Z,10.26
2022-11-11T15:44:38.498Z,10.22
2022-11-11T15:47:31.751Z,10.19
2022-11-11T15:50:30.848Z,10.30
2022-11-11T15:53:24.158Z,10.29
2022-11-11T15:56:10.780Z,10.16
2022-11-11T15:58:56.856Z,10.23
2022-11-11T16:01:43.296Z,10.17
2022-11-11T16:07:39.391Z,9.93
2022-11-11T16:10:29.036Z,9.79
2022-11-11T16:13:18.911Z,9.82
2022-11-11T16:16:10.283Z,9.75
2022-11-11T16:19:02.015Z,9.72
2022-11-11T16:21:55.722Z,9.77
2022-11-11T16:24:45.448Z,9.67
2022-11-11T16:27:33.731Z,9.65
2022-11-11T16:30:31.898Z,9.54
2022-11-11T16:33:34.024Z,9.41
2022-11-11T16:36:20.305Z,9.33
2022-11-11T16:39:21.573Z,9.31
2022-11-11T16:42:17.614Z,9.31
2022-11-11T16:45:05.847Z,9.43
2022-11-11T16:47:52.258Z,9.47
2022-11-11T16:50:56.235Z,9.47
2022-11-11T16:53:45.915Z,9.42
2022-11-11T16:56:36.007Z,9.43
2022-11-11T16:59:27.891Z,9.42
2022-11-11T17:02:18.118Z,9.37
2022-11-11T17:05:04.219Z,9.23
2022-11-11T17:07:50.162Z,9.16
2022-11-11T17:10:40.011Z,9.05
2022-11-11T17:13:29.127Z,9.05
2022-11-11T17:16:15.202Z,9.06
2022-11-11T17:19:02.116Z,9.06
2022-11-11T17:21:48.182Z,8.99
2022-11-11T17:24:34.137Z,9.00
2022-11-11T17:27:20.164Z,9.03
2022-11-11T17:30:09.522Z,9.09
2022-11-11T17:32:55.757Z,9.14
2022-11-11T17:35:51.155Z,9.14
2022-11-11T17:38:38.042Z,9.13
2022-11-11T17:41:24.427Z,9.15
2022-11-11T17:44:10.733Z,9.06
2022-11-11T17:46:57.981Z,8.96
2022-11-11T17:49:56.079Z,8.78
2022-11-11T17:52:42.999Z,8.72
2022-11-11T17:55:29.352Z,8.49
2022-11-11T17:58:15.345Z,8.53
2022-11-11T18:01:06.165Z,8.67
2022-11-11T18:03:57.713Z,8.65
2022-11-11T18:06:43.762Z,8.62
2022-11-11T18:09:30.168Z,8.67
2022-11-11T18:12:16.156Z,8.72
2022-11-11T18:15:02.679Z,8.77
2022-11-11T18:17:48.775Z,8.85
2022-11-11T18:20:36.406Z,8.91
2022-11-11T18:23:22.628Z,8.91
2022-11-11T18:26:09.401Z,8.93
2022-11-11T18:28:55.652Z,8.78
2022-11-11T18:31:41.846Z,8.71
2022-11-11T18:34:27.840Z,8.69
2022-11-11T18:37:15.317Z,8.73
2022-11-11T18:40:01.556Z,8.69
2022-11-11T18:42:47.491Z,8.56
2022-11-11T18:45:36.563Z,8.52
2022-11-11T18:48:22.614Z,8.52
2022-11-11T18:51:10.486Z,8.52
2022-11-11T18:53:58.407Z,8.48
2022-11-11T18:56:44.635Z,8.42
2022-11-11T18:59:30.766Z,8.38
2022-11-11T19:02:16.964Z,8.41
2022-11-11T19:05:03.213Z,8.36
2022-11-11T19:07:49.468Z,8.42
2022-11-11T19:10:36.770Z,8.41
2022-11-11T19:13:23.268Z,8.50
2022-11-11T19:16:11.422Z,8.57
2022-11-11T19:18:57.989Z,8.67
2022-11-11T19:21:43.912Z,8.67
2022-11-11T19:24:33.784Z,8.69
2022-11-11T19:27:21.796Z,8.73
2022-11-11T19:30:08.986Z,8.73
2022-11-11T19:32:55.201Z,8.69
2022-11-11T19:35:41.594Z,8.73
2022-11-11T19:38:27.458Z,8.73
2022-11-11T19:41:15.386Z,8.70
2022-11-11T19:44:03.144Z,8.57
2022-11-11T19:46:49.140Z,8.56
2022-11-11T19:49:38.187Z,8.54
2022-11-11T19:52:24.479Z,8.55
2022-11-11T19:55:10.787Z,8.63
2022-11-11T19:57:57.579Z,8.62
2022-11-11T20:00:45.219Z,8.61
2022-11-11T20:03:34.558Z,8.63
2022-11-11T20:06:23.787Z,8.56
2022-11-11T20:09:10.355Z,8.50
2022-11-11T20:11:56.691Z,8.38
2022-11-11T20:14:42.728Z,8.35
2022-11-11T20:17:30.176Z,8.32
2022-11-11T20:20:16.751Z,8.28
2022-11-11T20:23:06.155Z,8.22
2022-11-11T20:25:52.495Z,8.25
2022-11-11T20:28:39.856Z,8.24
2022-11-11T20:31:28.250Z,8.26
2022-11-11T20:34:16.055Z,8.33
2022-11-11T20:37:02.232Z,8.37
2022-11-11T20:39:48.439Z,8.41
2022-11-11T20:42:34.386Z,8.51
2022-11-11T20:45:20.734Z,8.44
2022-11-11T20:48:09.494Z,8.33
2022-11-11T20:51:03.596Z,8.22
2022-11-11T20:53:52.998Z,8.14
2022-11-11T20:56:39.499Z,8.19
2022-11-11T20:59:25.703Z,8.19
2022-11-11T21:02:12.096Z,8.13
2022-11-11T21:04:58.912Z,8.21
2022-11-11T21:07:49.477Z,8.21
2022-11-11T21:10:35.419Z,8.21
2022-11-11T21:13:21.500Z,8.27
2022-11-11T21:16:14.065Z,8.32
2022-11-11T21:19:03.925Z,8.35
2022-11-11T21:21:50.090Z,8.25
2022-11-11T21:24:37.760Z,8.16
2022-11-11T21:27:23.803Z,8.20
2022-11-11T21:30:10.878Z,8.22
2022-11-11T21:32:57.090Z,8.24
2022-11-11T21:35:43.085Z,8.19
2022-11-11T21:38:29.316Z,8.21
2022-11-11T21:41:18.625Z,8.20
2022-11-11T21:44:05.670Z,8.19
2022-11-11T21:46:51.727Z,8.17
2022-11-11T21:49:37.949Z,8.09
2022-11-11T21:52:24.191Z,8.08
2022-11-11T21:55:10.395Z,8.05
2022-11-11T21:57:58.076Z,8.14
2022-11-11T22:00:44.420Z,8.12
2022-11-11T22:03:32.050Z,8.09
2022-11-11T22:06:18.464Z,8.10
2022-11-11T22:09:05.829Z,7.98
2022-11-11T22:11:51.740Z,7.82
2022-11-11T22:14:39.374Z,7.81
2022-11-11T22:17:25.425Z,7.78
2022-11-11T22:20:12.024Z,7.85
2022-11-11T22:22:58.137Z,7.92
2022-11-11T22:25:45.042Z,7.95
2022-11-11T22:28:32.952Z,7.78
2022-11-11T22:31:22.438Z,7.75
2022-11-11T22:34:10.694Z,7.79
2022-11-11T22:36:57.179Z,7.74
2022-11-11T22:39:43.164Z,7.72
2022-11-11T22:42:29.152Z,7.72
2022-11-11T22:45:15.198Z,7.72
2022-11-11T22:48:02.765Z,7.71
2022-11-11T22:50:48.954Z,7.75
2022-11-11T22:53:35.802Z,7.70
2022-11-11T22:56:22.099Z,7.61
2022-11-11T22:59:08.127Z,7.63
2022-11-11T23:01:54.761Z,7.61
2022-11-11T23:04:42.205Z,7.62
2022-11-11T23:07:28.410Z,7.59
2022-11-11T23:10:14.579Z,7.54
2022-11-11T23:13:00.611Z,7.50
2022-11-11T23:15:52.684Z,7.59
2022-11-11T23:18:39.460Z,7.69
2022-11-11T23:21:28.593Z,7.72
2022-11-11T23:24:14.943Z,7.78
2022-11-11T23:27:01.118Z,7.80
2022-11-11T23:29:52.203Z,7.79
2022-11-11T23:32:39.248Z,7.74
2022-11-11T23:35:25.301Z,7.63
2022-11-11T23:38:12.784Z,7.55
2022-11-11T23:40:59.193Z,7.56
2022-11-11T23:43:45.314Z,7.54
2022-11-11T23:46:35.526Z,7.51
2022-11-11T23:49:21.928Z,7.47
2022-11-11T23:52:07.963Z,7.50
2022-11-11T23:54:55.438Z,7.47
2022-11-11T23:57:41.937Z,7.52
